sensor_id;sensor_type;location;lat;lon;timestamp;pressure;altitude;pressure_sealevel;temperature;humidity
6208;BME280;3137;51.550;7.060;2023-01-26T00:01:13;102188.09;;;-1.74;84.19
6208;BME280;3137;51.550;7.060;2023-01-26T00:03:40;102181.13;;;-1.67;84.50
6208;BME280;3137;51.550;7.060;2023-01-26T00:06:08;102178.50;;;-1.69;84.29
6208;BME280;3137;51.550;7.060;2023-01-26T00:08:43;102166.22;;;-1.76;84.76
6208;BME280;3137;51.550;7.060;2023-01-26T00:11:12;102162.69;;;-1.80;85.38
6208;BME280;3137;51.550;7.060;2023-01-26T00:13:39;102163.56;;;-1.84;84.79
6208;BME280;3137;51.550;7.060;2023-01-26T00:16:13;102159.22;;;-1.77;85.22
6208;BME280;3137;51.550;7.060;2023-01-26T00:18:40;102160.06;;;-1.86;85.79
6208;BME280;3137;51.550;7.060;2023-01-26T00:21:11;102158.31;;;-1.81;85.76
6208;BME280;3137;51.550;7.060;2023-01-26T00:23:37;102147.84;;;-1.73;85.76
6208;BME280;3137;51.550;7.060;2023-01-26T00:26:08;102141.69;;;-1.80;85.76
6208;BME280;3137;51.550;7.060;2023-01-26T00:28:37;102135.59;;;-1.66;85.54
6208;BME280;3137;51.550;7.060;2023-01-26T00:31:24;102125.06;;;-1.73;85.80
6208;BME280;3137;51.550;7.060;2023-01-26T00:33:55;102130.31;;;-1.73;86.09
6208;BME280;3137;51.550;7.060;2023-01-26T00:36:22;102142.59;;;-1.68;85.82
6208;BME280;3137;51.550;7.060;2023-01-26T00:38:49;102132.09;;;-1.72;85.83
6208;BME280;3137;51.550;7.060;2023-01-26T00:41:15;102124.22;;;-1.64;86.05
6208;BME280;3137;51.550;7.060;2023-01-26T00:44:00;102118.97;;;-1.61;85.78
6208;BME280;3137;51.550;7.060;2023-01-26T00:46:27;102123.31;;;-1.71;86.29
6208;BME280;3137;51.550;7.060;2023-01-26T00:48:54;102114.56;;;-1.68;85.94
6208;BME280;3137;51.550;7.060;2023-01-26T00:51:20;102111.97;;;-1.66;86.18
6208;BME280;3137;51.550;7.060;2023-01-26T00:53:46;102110.22;;;-1.60;86.05
6208;BME280;3137;51.550;7.060;2023-01-26T00:56:13;102103.19;;;-1.61;86.05
6208;BME280;3137;51.550;7.060;2023-01-26T00:58:40;102104.09;;;-1.59;86.29
6208;BME280;3137;51.550;7.060;2023-01-26T01:01:07;102114.59;;;-1.51;85.98
6208;BME280;3137;51.550;7.060;2023-01-26T01:03:33;102110.22;;;-1.64;86.05
6208;BME280;3137;51.550;7.060;2023-01-26T01:06:00;102112.84;;;-1.57;86.20
6208;BME280;3137;51.550;7.060;2023-01-26T01:08:28;102106.72;;;-1.53;86.25
6208;BME280;3137;51.550;7.060;2023-01-26T01:11:06;102110.25;;;-1.51;86.24
6208;BME280;3137;51.550;7.060;2023-01-26T01:13:33;102114.59;;;-1.56;86.37
6208;BME280;3137;51.550;7.060;2023-01-26T01:16:04;102111.09;;;-1.56;86.53
6208;BME280;3137;51.550;7.060;2023-01-26T01:18:32;102116.34;;;-1.56;86.69
6208;BME280;3137;51.550;7.060;2023-01-26T01:20:58;102111.09;;;-1.55;86.47
6208;BME280;3137;51.550;7.060;2023-01-26T01:23:28;102102.31;;;-1.58;86.27
6208;BME280;3137;51.550;7.060;2023-01-26T01:25:59;102107.59;;;-1.54;86.64
6208;BME280;3137;51.550;7.060;2023-01-26T01:28:26;102099.72;;;-1.61;86.95
6208;BME280;3137;51.550;7.060;2023-01-26T01:30:52;102101.47;;;-1.65;86.61
6208;BME280;3137;51.550;7.060;2023-01-26T01:33:18;102100.59;;;-1.59;87.45
6208;BME280;3137;51.550;7.060;2023-01-26T01:36:04;102104.06;;;-1.63;87.19
6208;BME280;3137;51.550;7.060;2023-01-26T01:38:31;102100.59;;;-1.64;87.37
6208;BME280;3137;51.550;7.060;2023-01-26T01:40:58;102093.56;;;-1.59;87.25
6208;BME280;3137;51.550;7.060;2023-01-26T01:43:25;102090.97;;;-1.57;86.89
6208;BME280;3137;51.550;7.060;2023-01-26T01:45:53;102087.44;;;-1.56;87.34
6208;BME280;3137;51.550;7.060;2023-01-26T01:51:17;102095.34;;;-1.52;87.53
6208;BME280;3137;51.550;7.060;2023-01-26T01:53:47;102089.19;;;-1.58;87.52
6208;BME280;3137;51.550;7.060;2023-01-26T01:56:18;102080.44;;;-1.54;87.12
6208;BME280;3137;51.550;7.060;2023-01-26T01:58:51;102086.59;;;-1.52;88.06
6208;BME280;3137;51.550;7.060;2023-01-26T02:01:19;102080.44;;;-1.56;87.44
6208;BME280;3137;51.550;7.060;2023-01-26T02:03:46;102077.81;;;-1.54;88.14
6208;BME280;3137;51.550;7.060;2023-01-26T02:06:24;102076.97;;;-1.50;87.75
6208;BME280;3137;51.550;7.060;2023-01-26T02:08:55;102076.06;;;-1.57;88.33
6208;BME280;3137;51.550;7.060;2023-01-26T02:11:25;102074.31;;;-1.56;87.55
6208;BME280;3137;51.550;7.060;2023-01-26T02:13:54;102069.09;;;-1.53;87.58
6208;BME280;3137;51.550;7.060;2023-01-26T02:16:21;102063.81;;;-1.55;88.03
6208;BME280;3137;51.550;7.060;2023-01-26T02:18:48;102064.69;;;-1.62;87.94
6208;BME280;3137;51.550;7.060;2023-01-26T02:21:21;102064.69;;;-1.62;88.08
6208;BME280;3137;51.550;7.060;2023-01-26T02:26:34;102054.19;;;-1.62;88.34
6208;BME280;3137;51.550;7.060;2023-01-26T02:29:04;102069.06;;;-1.67;88.01
6208;BME280;3137;51.550;7.060;2023-01-26T02:31:35;102064.69;;;-1.77;88.80
6208;BME280;3137;51.550;7.060;2023-01-26T02:34:02;102058.56;;;-1.68;89.07
6208;BME280;3137;51.550;7.060;2023-01-26T02:36:30;102060.34;;;-1.67;88.72
6208;BME280;3137;51.550;7.060;2023-01-26T02:41:28;102061.19;;;-1.62;88.75
6208;BME280;3137;51.550;7.060;2023-01-26T02:44:13;102065.56;;;-1.60;88.64
6208;BME280;3137;51.550;7.060;2023-01-26T02:46:40;102064.69;;;-1.63;88.76
6208;BME280;3137;51.550;7.060;2023-01-26T02:49:07;102074.34;;;-1.62;88.52
6208;BME280;3137;51.550;7.060;2023-01-26T02:51:52;102063.81;;;-1.61;88.65
6208;BME280;3137;51.550;7.060;2023-01-26T02:54:19;102061.19;;;-1.62;88.54
6208;BME280;3137;51.550;7.060;2023-01-26T02:57:04;102050.69;;;-1.64;88.49
6208;BME280;3137;51.550;7.060;2023-01-26T02:59:31;102042.81;;;-1.68;88.88
6208;BME280;3137;51.550;7.060;2023-01-26T03:01:57;102048.94;;;-1.71;89.21
6208;BME280;3137;51.550;7.060;2023-01-26T03:04:24;102050.69;;;-1.64;89.40
6208;BME280;3137;51.550;7.060;2023-01-26T03:06:51;102049.81;;;-1.64;89.16
6208;BME280;3137;51.550;7.060;2023-01-26T03:09:17;102051.56;;;-1.65;89.13
6208;BME280;3137;51.550;7.060;2023-01-26T03:11:44;102045.44;;;-1.68;89.02
6208;BME280;3137;51.550;7.060;2023-01-26T03:14:13;102041.06;;;-1.66;88.96
6208;BME280;3137;51.550;7.060;2023-01-26T03:16:40;102043.69;;;-1.60;89.64
6208;BME280;3137;51.550;7.060;2023-01-26T03:19:10;102038.41;;;-1.63;89.89
6208;BME280;3137;51.550;7.060;2023-01-26T03:21:57;102036.69;;;-1.61;88.99
6208;BME280;3137;51.550;7.060;2023-01-26T03:24:42;102038.41;;;-1.63;89.27
6208;BME280;3137;51.550;7.060;2023-01-26T03:27:32;102043.69;;;-1.69;88.88
6208;BME280;3137;51.550;7.060;2023-01-26T03:30:01;102038.44;;;-1.71;88.91
6208;BME280;3137;51.550;7.060;2023-01-26T03:32:28;102052.44;;;-1.74;89.53
6208;BME280;3137;51.550;7.060;2023-01-26T03:34:54;102043.66;;;-1.68;89.49
6208;BME280;3137;51.550;7.060;2023-01-26T03:37:22;102038.44;;;-1.71;89.71
6208;BME280;3137;51.550;7.060;2023-01-26T03:39:57;102032.31;;;-1.72;89.47
6208;BME280;3137;51.550;7.060;2023-01-26T03:42:42;102044.56;;;-1.74;89.80
6208;BME280;3137;51.550;7.060;2023-01-26T03:45:28;102036.69;;;-1.74;90.00
6208;BME280;3137;51.550;7.060;2023-01-26T03:48:14;102032.31;;;-1.72;90.00
6208;BME280;3137;51.550;7.060;2023-01-26T03:51:01;102035.81;;;-1.66;90.08
6208;BME280;3137;51.550;7.060;2023-01-26T03:53:46;102032.31;;;-1.67;90.10
6208;BME280;3137;51.550;7.060;2023-01-26T03:56:31;102039.28;;;-1.71;90.58
6208;BME280;3137;51.550;7.060;2023-01-26T03:59:04;102038.44;;;-1.76;89.84
6208;BME280;3137;51.550;7.060;2023-01-26T04:01:39;102027.91;;;-1.73;90.67
6208;BME280;3137;51.550;7.060;2023-01-26T04:04:06;102031.44;;;-1.74;90.77
6208;BME280;3137;51.550;7.060;2023-01-26T04:06:52;102025.31;;;-1.77;90.66
6208;BME280;3137;51.550;7.060;2023-01-26T04:09:42;102034.94;;;-1.75;90.92
6208;BME280;3137;51.550;7.060;2023-01-26T04:12:09;102027.03;;;-1.65;90.82
6208;BME280;3137;51.550;7.060;2023-01-26T04:14:46;102022.69;;;-1.69;91.02
6208;BME280;3137;51.550;7.060;2023-01-26T04:17:32;102028.81;;;-1.74;90.96
6208;BME280;3137;51.550;7.060;2023-01-26T04:20:18;102020.91;;;-1.71;90.92
6208;BME280;3137;51.550;7.060;2023-01-26T04:23:03;102027.03;;;-1.70;90.96
6208;BME280;3137;51.550;7.060;2023-01-26T04:25:29;102021.78;;;-1.65;90.96
6208;BME280;3137;51.550;7.060;2023-01-26T04:27:56;102020.03;;;-1.68;91.29
6208;BME280;3137;51.550;7.060;2023-01-26T04:30:23;102021.81;;;-1.62;90.90
6208;BME280;3137;51.550;7.060;2023-01-26T04:32:50;102033.19;;;-1.65;90.97
6208;BME280;3137;51.550;7.060;2023-01-26T04:35:17;102027.03;;;-1.65;91.12
6208;BME280;3137;51.550;7.060;2023-01-26T04:37:46;102028.78;;;-1.71;90.78
6208;BME280;3137;51.550;7.060;2023-01-26T04:40:12;102023.56;;;-1.64;90.90
6208;BME280;3137;51.550;7.060;2023-01-26T04:42:39;102024.41;;;-1.64;90.65
6208;BME280;3137;51.550;7.060;2023-01-26T04:45:09;102019.19;;;-1.62;90.68
6208;BME280;3137;51.550;7.060;2023-01-26T04:47:35;102016.53;;;-1.55;90.58
6208;BME280;3137;51.550;7.060;2023-01-26T04:50:02;102018.28;;;-1.52;91.05
6208;BME280;3137;51.550;7.060;2023-01-26T04:52:30;102016.53;;;-1.50;91.26
6208;BME280;3137;51.550;7.060;2023-01-26T04:54:56;102014.78;;;-1.50;91.03
6208;BME280;3137;51.550;7.060;2023-01-26T04:57:23;102012.16;;;-1.45;90.56
6208;BME280;3137;51.550;7.060;2023-01-26T04:59:50;102015.66;;;-1.46;91.07
6208;BME280;3137;51.550;7.060;2023-01-26T05:02:18;102019.16;;;-1.41;91.01
6208;BME280;3137;51.550;7.060;2023-01-26T05:04:44;102020.88;;;-1.41;90.76
6208;BME280;3137;51.550;7.060;2023-01-26T05:07:12;102013.88;;;-1.44;90.67
6208;BME280;3137;51.550;7.060;2023-01-26T05:09:39;102016.53;;;-1.47;90.96
6208;BME280;3137;51.550;7.060;2023-01-26T05:12:25;102015.66;;;-1.47;91.06
6208;BME280;3137;51.550;7.060;2023-01-26T05:15:21;102016.50;;;-1.39;91.38
6208;BME280;3137;51.550;7.060;2023-01-26T05:18:10;102016.53;;;-1.41;90.57
6208;BME280;3137;51.550;7.060;2023-01-26T05:20:46;102019.16;;;-1.41;91.22
6208;BME280;3137;51.550;7.060;2023-01-26T05:23:21;102018.28;;;-1.44;90.50
6208;BME280;3137;51.550;7.060;2023-01-26T05:26:23;102014.78;;;-1.45;90.99
6208;BME280;3137;51.550;7.060;2023-01-26T05:29:09;102022.66;;;-1.43;91.08
6208;BME280;3137;51.550;7.060;2023-01-26T05:31:36;102025.28;;;-1.39;91.68
6208;BME280;3137;51.550;7.060;2023-01-26T05:34:02;102028.78;;;-1.40;91.52
6208;BME280;3137;51.550;7.060;2023-01-26T05:36:31;102034.03;;;-1.37;91.04
6208;BME280;3137;51.550;7.060;2023-01-26T05:38:58;102027.91;;;-1.42;91.28
6208;BME280;3137;51.550;7.060;2023-01-26T05:41:25;102030.53;;;-1.37;91.03
6208;BME280;3137;51.550;7.060;2023-01-26T05:44:15;102030.53;;;-1.36;90.74
6208;BME280;3137;51.550;7.060;2023-01-26T05:46:48;102028.75;;;-1.32;91.42
6208;BME280;3137;51.550;7.060;2023-01-26T05:49:15;102030.53;;;-1.39;91.32
6208;BME280;3137;51.550;7.060;2023-01-26T05:51:42;102030.53;;;-1.33;91.21
6208;BME280;3137;51.550;7.060;2023-01-26T05:54:08;102032.28;;;-1.33;91.08
6208;BME280;3137;51.550;7.060;2023-01-26T05:56:35;102026.16;;;-1.29;90.93
6208;BME280;3137;51.550;7.060;2023-01-26T05:59:03;102027.88;;;-1.28;91.07
6208;BME280;3137;51.550;7.060;2023-01-26T06:01:30;102025.25;;;-1.34;91.19
6208;BME280;3137;51.550;7.060;2023-01-26T06:04:00;102022.63;;;-1.28;91.46
6208;BME280;3137;51.550;7.060;2023-01-26T06:06:33;102030.50;;;-1.30;91.06
6208;BME280;3137;51.550;7.060;2023-01-26T06:09:14;102026.16;;;-1.24;91.60
6208;BME280;3137;51.550;7.060;2023-01-26T06:11:59;102027.88;;;-1.30;91.23
6208;BME280;3137;51.550;7.060;2023-01-26T06:14:49;102020.00;;;-1.23;91.12
6208;BME280;3137;51.550;7.060;2023-01-26T06:17:17;102020.00;;;-1.25;91.52
6208;BME280;3137;51.550;7.060;2023-01-26T06:19:44;102022.63;;;-1.33;91.48
6208;BME280;3137;51.550;7.060;2023-01-26T06:22:12;102028.75;;;-1.26;91.70
6208;BME280;3137;51.550;7.060;2023-01-26T06:24:43;102021.75;;;-1.21;91.31
6208;BME280;3137;51.550;7.060;2023-01-26T06:27:12;102020.88;;;-1.24;91.11
6208;BME280;3137;51.550;7.060;2023-01-26T06:29:41;102019.09;;;-1.22;90.65
6208;BME280;3137;51.550;7.060;2023-01-26T06:32:12;102019.13;;;-1.21;91.05
6208;BME280;3137;51.550;7.060;2023-01-26T06:34:40;102025.25;;;-1.20;91.16
6208;BME280;3137;51.550;7.060;2023-01-26T06:37:07;102022.59;;;-1.16;90.89
6208;BME280;3137;51.550;7.060;2023-01-26T06:39:37;102025.25;;;-1.19;91.66
6208;BME280;3137;51.550;7.060;2023-01-26T06:42:03;102029.63;;;-1.19;91.41
6208;BME280;3137;51.550;7.060;2023-01-26T06:44:30;102027.84;;;-1.11;91.37
6208;BME280;3137;51.550;7.060;2023-01-26T06:46:56;102022.59;;;-1.16;91.46
6208;BME280;3137;51.550;7.060;2023-01-26T06:49:23;102027.88;;;-1.17;91.50
6208;BME280;3137;51.550;7.060;2023-01-26T06:51:57;102032.25;;;-1.18;90.74
6208;BME280;3137;51.550;7.060;2023-01-26T06:54:37;102030.50;;;-1.14;90.93
6208;BME280;3137;51.550;7.060;2023-01-26T06:57:20;102028.72;;;-1.20;90.51
6208;BME280;3137;51.550;7.060;2023-01-26T06:59:59;102029.63;;;-1.18;90.82
6208;BME280;3137;51.550;7.060;2023-01-26T07:02:44;102033.97;;;-1.11;90.98
6208;BME280;3137;51.550;7.060;2023-01-26T07:05:11;102031.38;;;-1.18;90.32
6208;BME280;3137;51.550;7.060;2023-01-26T07:07:38;102037.50;;;-1.15;91.05
6208;BME280;3137;51.550;7.060;2023-01-26T07:10:04;102038.34;;;-1.13;90.71
6208;BME280;3137;51.550;7.060;2023-01-26T07:12:42;102041.88;;;-1.17;90.62
6208;BME280;3137;51.550;7.060;2023-01-26T07:15:10;102034.88;;;-1.15;91.19
6208;BME280;3137;51.550;7.060;2023-01-26T07:17:38;102027.88;;;-1.22;90.67
6208;BME280;3137;51.550;7.060;2023-01-26T07:20:05;102031.34;;;-1.15;91.07
6208;BME280;3137;51.550;7.060;2023-01-26T07:22:32;102030.47;;;-1.13;91.33
6208;BME280;3137;51.550;7.060;2023-01-26T07:24:59;102024.34;;;-1.12;90.63
6208;BME280;3137;51.550;7.060;2023-01-26T07:27:25;102032.25;;;-1.12;90.29
6208;BME280;3137;51.550;7.060;2023-01-26T07:29:51;102032.25;;;-1.10;90.86
6208;BME280;3137;51.550;7.060;2023-01-26T07:32:18;102026.97;;;-1.12;91.29
6208;BME280;3137;51.550;7.060;2023-01-26T07:34:44;102030.50;;;-1.19;90.43
6208;BME280;3137;51.550;7.060;2023-01-26T07:37:11;102040.13;;;-1.16;91.12
6208;BME280;3137;51.550;7.060;2023-01-26T07:39:37;102031.38;;;-1.18;91.37
6208;BME280;3137;51.550;7.060;2023-01-26T07:42:04;102034.88;;;-1.25;91.31
6208;BME280;3137;51.550;7.060;2023-01-26T07:44:43;102029.63;;;-1.16;91.87
6208;BME280;3137;51.550;7.060;2023-01-26T07:47:10;102030.47;;;-1.11;91.58
6208;BME280;3137;51.550;7.060;2023-01-26T07:49:36;102040.13;;;-1.15;91.36
6208;BME280;3137;51.550;7.060;2023-01-26T07:52:03;102033.97;;;-1.06;91.30
6208;BME280;3137;51.550;7.060;2023-01-26T07:54:31;102033.09;;;-1.11;91.30
6208;BME280;3137;51.550;7.060;2023-01-26T07:56:57;102041.84;;;-1.01;90.45
6208;BME280;3137;51.550;7.060;2023-01-26T07:59:23;102029.59;;;-1.02;90.53
6208;BME280;3137;51.550;7.060;2023-01-26T08:01:50;102033.09;;;-1.05;90.76
6208;BME280;3137;51.550;7.060;2023-01-26T08:04:17;102037.47;;;-1.04;90.97
6208;BME280;3137;51.550;7.060;2023-01-26T08:06:44;102032.19;;;-1.01;91.32
6208;BME280;3137;51.550;7.060;2023-01-26T08:09:10;102041.00;;;-1.05;91.29
6208;BME280;3137;51.550;7.060;2023-01-26T08:11:37;102034.84;;;-1.02;91.27
6208;BME280;3137;51.550;7.060;2023-01-26T08:14:03;102043.59;;;-0.96;91.41
6208;BME280;3137;51.550;7.060;2023-01-26T08:16:29;102048.88;;;-1.00;90.87
6208;BME280;3137;51.550;7.060;2023-01-26T08:18:56;102041.84;;;-0.97;90.98
6208;BME280;3137;51.550;7.060;2023-01-26T08:21:22;102045.34;;;-0.99;91.26
6208;BME280;3137;51.550;7.060;2023-01-26T08:23:49;102049.72;;;-0.97;91.35
6208;BME280;3137;51.550;7.060;2023-01-26T08:26:18;102051.50;;;-1.02;90.73
6208;BME280;3137;51.550;7.060;2023-01-26T08:28:45;102056.75;;;-0.97;91.44
6208;BME280;3137;51.550;7.060;2023-01-26T08:31:15;102053.22;;;-0.95;91.72
6208;BME280;3137;51.550;7.060;2023-01-26T08:33:46;102049.69;;;-0.94;90.70
6208;BME280;3137;51.550;7.060;2023-01-26T08:36:14;102047.97;;;-0.96;91.57
6208;BME280;3137;51.550;7.060;2023-01-26T08:38:41;102048.84;;;-0.99;91.27
6208;BME280;3137;51.550;7.060;2023-01-26T08:41:08;102057.59;;;-0.89;90.98
6208;BME280;3137;51.550;7.060;2023-01-26T08:43:35;102059.34;;;-0.83;90.99
6208;BME280;3137;51.550;7.060;2023-01-26T08:46:01;102055.78;;;-0.79;92.21
6208;BME280;3137;51.550;7.060;2023-01-26T08:48:28;102059.28;;;-0.73;91.35
6208;BME280;3137;51.550;7.060;2023-01-26T08:50:58;102061.91;;;-0.73;92.10
6208;BME280;3137;51.550;7.060;2023-01-26T08:53:25;102060.16;;;-0.72;91.73
6208;BME280;3137;51.550;7.060;2023-01-26T08:55:51;102058.44;;;-0.72;92.01
6208;BME280;3137;51.550;7.060;2023-01-26T08:58:18;102057.50;;;-0.66;91.07
6208;BME280;3137;51.550;7.060;2023-01-26T09:00:45;102061.03;;;-0.70;90.84
6208;BME280;3137;51.550;7.060;2023-01-26T09:03:12;102055.75;;;-0.66;92.02
6208;BME280;3137;51.550;7.060;2023-01-26T09:05:39;102063.59;;;-0.58;92.11
6208;BME280;3137;51.550;7.060;2023-01-26T09:08:07;102062.75;;;-0.61;91.10
6208;BME280;3137;51.550;7.060;2023-01-26T09:10:36;102074.16;;;-0.59;91.91
6208;BME280;3137;51.550;7.060;2023-01-26T09:13:02;102077.69;;;-0.70;91.21
6208;BME280;3137;51.550;7.060;2023-01-26T09:15:29;102075.03;;;-0.63;91.42
6208;BME280;3137;51.550;7.060;2023-01-26T09:17:55;102080.34;;;-0.71;91.99
6208;BME280;3137;51.550;7.060;2023-01-26T09:20:25;102077.72;;;-0.76;91.32
6208;BME280;3137;51.550;7.060;2023-01-26T09:22:51;102075.94;;;-0.75;91.86
6208;BME280;3137;51.550;7.060;2023-01-26T09:25:17;102075.94;;;-0.69;91.52
6208;BME280;3137;51.550;7.060;2023-01-26T09:27:44;102075.94;;;-0.65;90.99
6208;BME280;3137;51.550;7.060;2023-01-26T09:30:10;102072.41;;;-0.63;91.30
6208;BME280;3137;51.550;7.060;2023-01-26T09:32:37;102075.91;;;-0.57;92.34
6208;BME280;3137;51.550;7.060;2023-01-26T09:35:04;102081.19;;;-0.71;92.47
6208;BME280;3137;51.550;7.060;2023-01-26T09:37:30;102080.31;;;-0.63;91.62
6208;BME280;3137;51.550;7.060;2023-01-26T09:39:57;102080.25;;;-0.53;91.55
6208;BME280;3137;51.550;7.060;2023-01-26T09:42:30;102087.22;;;-0.46;91.73
6208;BME280;3137;51.550;7.060;2023-01-26T09:45:40;102089.88;;;-0.43;91.24
6208;BME280;3137;51.550;7.060;2023-01-26T09:48:13;102078.47;;;-0.43;90.97
6208;BME280;3137;51.550;7.060;2023-01-26T09:50:50;102073.19;;;-0.40;91.95
6208;BME280;3137;51.550;7.060;2023-01-26T09:53:42;102079.31;;;-0.39;92.23
6208;BME280;3137;51.550;7.060;2023-01-26T09:56:15;102074.13;;;-0.50;91.83
6208;BME280;3137;51.550;7.060;2023-01-26T09:58:46;102082.88;;;-0.47;91.32
6208;BME280;3137;51.550;7.060;2023-01-26T10:01:25;102078.50;;;-0.48;91.38
6208;BME280;3137;51.550;7.060;2023-01-26T10:04:03;102077.59;;;-0.48;91.90
6208;BME280;3137;51.550;7.060;2023-01-26T10:06:33;102068.81;;;-0.44;91.41
6208;BME280;3137;51.550;7.060;2023-01-26T10:09:43;102072.34;;;-0.47;92.26
6208;BME280;3137;51.550;7.060;2023-01-26T10:12:24;102062.69;;;-0.45;91.05
6208;BME280;3137;51.550;7.060;2023-01-26T10:15:03;102069.72;;;-0.48;92.66
6208;BME280;3137;51.550;7.060;2023-01-26T10:17:37;102067.94;;;-0.40;91.51
6208;BME280;3137;51.550;7.060;2023-01-26T10:22:54;102060.91;;;-0.38;92.36
6208;BME280;3137;51.550;7.060;2023-01-26T10:25:33;102050.34;;;-0.35;91.56
6208;BME280;3137;51.550;7.060;2023-01-26T10:30:49;102051.16;;;-0.22;91.85
6208;BME280;3137;51.550;7.060;2023-01-26T10:33:30;102048.50;;;-0.17;91.66
6208;BME280;3137;51.550;7.060;2023-01-26T10:36:02;102052.88;;;-0.13;92.45
6208;BME280;3137;51.550;7.060;2023-01-26T10:41:04;102048.47;;;-0.13;92.47
6208;BME280;3137;51.550;7.060;2023-01-26T10:43:34;102047.56;;;-0.10;92.64
6208;BME280;3137;51.550;7.060;2023-01-26T10:46:02;102044.06;;;-0.12;91.40
6208;BME280;3137;51.550;7.060;2023-01-26T10:48:29;102039.69;;;-0.09;92.63
6208;BME280;3137;51.550;7.060;2023-01-26T10:51:14;102044.91;;;-0.06;91.54
6208;BME280;3137;51.550;7.060;2023-01-26T10:53:41;102037.88;;;-0.02;92.77
6208;BME280;3137;51.550;7.060;2023-01-26T10:56:12;102040.47;;;0.04;91.49
6208;BME280;3137;51.550;7.060;2023-01-26T10:58:49;102043.09;;;0.04;91.48
6208;BME280;3137;51.550;7.060;2023-01-26T11:01:17;102046.59;;;0.06;91.29
6208;BME280;3137;51.550;7.060;2023-01-26T11:04:08;102041.25;;;0.14;91.90
6208;BME280;3137;51.550;7.060;2023-01-26T11:06:37;102037.78;;;0.07;91.18
6208;BME280;3137;51.550;7.060;2023-01-26T11:09:09;102042.19;;;0.10;91.38
6208;BME280;3137;51.550;7.060;2023-01-26T11:11:36;102029.88;;;0.15;91.94
6208;BME280;3137;51.550;7.060;2023-01-26T11:14:17;102028.13;;;0.11;90.91
6208;BME280;3137;51.550;7.060;2023-01-26T11:16:58;102033.47;;;0.03;91.19
6208;BME280;3137;51.550;7.060;2023-01-26T11:22:18;102033.38;;;0.17;91.61
6208;BME280;3137;51.550;7.060;2023-01-26T11:24:59;102030.72;;;0.14;90.95
6208;BME280;3137;51.550;7.060;2023-01-26T11:27:57;102036.00;;;0.14;91.70
6208;BME280;3137;51.550;7.060;2023-01-26T11:30:52;102036.84;;;0.19;90.89
6208;BME280;3137;51.550;7.060;2023-01-26T11:33:28;102032.50;;;0.12;92.18
6208;BME280;3137;51.550;7.060;2023-01-26T11:36:11;102038.63;;;0.14;91.31
6208;BME280;3137;51.550;7.060;2023-01-26T11:44:45;102031.59;;;0.16;92.49
6208;BME280;3137;51.550;7.060;2023-01-26T11:47:24;102026.28;;;0.19;91.78
6208;BME280;3137;51.550;7.060;2023-01-26T11:50:15;102012.25;;;0.18;92.37
6208;BME280;3137;51.550;7.060;2023-01-26T11:58:42;102012.19;;;0.29;91.61
6208;BME280;3137;51.550;7.060;2023-01-26T12:01:22;102010.41;;;0.31;91.98
6208;BME280;3137;51.550;7.060;2023-01-26T12:03:54;102004.28;;;0.29;91.18
6208;BME280;3137;51.550;7.060;2023-01-26T12:06:30;102010.47;;;0.25;91.50
6208;BME280;3137;51.550;7.060;2023-01-26T12:09:04;102000.72;;;0.33;91.35
6208;BME280;3137;51.550;7.060;2023-01-26T12:11:40;101997.22;;;0.33;91.49
6208;BME280;3137;51.550;7.060;2023-01-26T12:14:30;101990.22;;;0.32;91.53
6208;BME280;3137;51.550;7.060;2023-01-26T12:22:41;101984.94;;;0.30;92.71
6208;BME280;3137;51.550;7.060;2023-01-26T12:28:13;101981.47;;;0.24;92.25
6208;BME280;3137;51.550;7.060;2023-01-26T12:30:48;101981.50;;;0.22;91.84
6208;BME280;3137;51.550;7.060;2023-01-26T12:33:18;101970.03;;;0.29;92.24
6208;BME280;3137;51.550;7.060;2023-01-26T12:46:50;101958.38;;;0.50;92.26
6208;BME280;3137;51.550;7.060;2023-01-26T12:49:30;101957.56;;;0.47;93.10
6208;BME280;3137;51.550;7.060;2023-01-26T12:52:09;101954.84;;;0.54;92.35
6208;BME280;3137;51.550;7.060;2023-01-26T12:54:43;101959.16;;;0.61;92.46
6208;BME280;3137;51.550;7.060;2023-01-26T12:57:13;101961.75;;;0.64;93.23
6208;BME280;3137;51.550;7.060;2023-01-26T12:59:42;101957.38;;;0.63;92.63
6208;BME280;3137;51.550;7.060;2023-01-26T13:02:30;101955.59;;;0.67;92.74
6208;BME280;3137;51.550;7.060;2023-01-26T13:05:00;101948.56;;;0.68;92.84
6208;BME280;3137;51.550;7.060;2023-01-26T13:07:29;101952.88;;;0.73;92.19
6208;BME280;3137;51.550;7.060;2023-01-26T13:12:56;101951.00;;;0.84;93.01
6208;BME280;3137;51.550;7.060;2023-01-26T13:15:26;101941.31;;;0.87;92.14
6208;BME280;3137;51.550;7.060;2023-01-26T13:17:58;101948.38;;;0.84;92.81
6208;BME280;3137;51.550;7.060;2023-01-26T13:26:19;101950.91;;;0.92;92.02
6208;BME280;3137;51.550;7.060;2023-01-26T13:28:47;101945.66;;;0.91;92.64
6208;BME280;3137;51.550;7.060;2023-01-26T13:31:29;101943.88;;;0.93;92.71
6208;BME280;3137;51.550;7.060;2023-01-26T13:33:59;101946.50;;;0.94;92.16
6208;BME280;3137;51.550;7.060;2023-01-26T13:36:29;101947.31;;;0.98;92.97
6208;BME280;3137;51.550;7.060;2023-01-26T13:39:02;101944.66;;;0.99;92.13
6208;BME280;3137;51.550;7.060;2023-01-26T13:41:30;101942.94;;;0.98;92.17
6208;BME280;3137;51.550;7.060;2023-01-26T13:44:07;101950.00;;;0.95;93.18
6208;BME280;3137;51.550;7.060;2023-01-26T13:46:39;101956.03;;;1.04;92.23
6208;BME280;3137;51.550;7.060;2023-01-26T13:49:39;101945.53;;;1.01;92.52
6208;BME280;3137;51.550;7.060;2023-01-26T13:52:22;101944.56;;;1.09;92.55
6208;BME280;3137;51.550;7.060;2023-01-26T13:54:55;101940.97;;;1.14;93.02
6208;BME280;3137;51.550;7.060;2023-01-26T13:57:28;101942.72;;;1.15;93.08
6208;BME280;3137;51.550;7.060;2023-01-26T13:59:59;101942.75;;;1.12;93.28
6208;BME280;3137;51.550;7.060;2023-01-26T14:02:30;101947.09;;;1.18;92.83
6208;BME280;3137;51.550;7.060;2023-01-26T14:04:58;101941.72;;;1.24;93.02
6208;BME280;3137;51.550;7.060;2023-01-26T14:07:38;101944.31;;;1.27;93.19
6208;BME280;3137;51.550;7.060;2023-01-26T14:10:15;101944.31;;;1.27;93.36
6208;BME280;3137;51.550;7.060;2023-01-26T14:12:46;101943.38;;;1.31;92.61
6208;BME280;3137;51.550;7.060;2023-01-26T14:15:22;101942.50;;;1.32;92.80
6208;BME280;3137;51.550;7.060;2023-01-26T14:17:55;101933.59;;;1.38;93.19
6208;BME280;3137;51.550;7.060;2023-01-26T14:20:28;101931.78;;;1.43;93.44
6208;BME280;3137;51.550;7.060;2023-01-26T14:23:15;101941.34;;;1.50;93.45
6208;BME280;3137;51.550;7.060;2023-01-26T14:25:46;101940.41;;;1.56;93.12
6208;BME280;3137;51.550;7.060;2023-01-26T14:28:15;101936.78;;;1.63;93.35
6208;BME280;3137;51.550;7.060;2023-01-26T14:30:42;101938.31;;;1.76;93.48
6208;BME280;3137;51.550;7.060;2023-01-26T14:33:16;101940.88;;;1.81;93.50
6208;BME280;3137;51.550;7.060;2023-01-26T14:35:55;101943.41;;;1.88;93.05
6208;BME280;3137;51.550;7.060;2023-01-26T14:38:21;101949.53;;;1.90;92.62